Time;durP1;ratioP1;P1;durP2;ratioP2;P2;SDS_P1;SDS_P2;PMS_P1;PMS_P2;Temp;Humidity;BMP_temperature;BMP_pressure;BME280_temperature;BME280_humidity;BME280_pressure;Samples;Min_cycle;Max_cycle;Signal;HPM_P1;HPM_P2
2021/07/29 00:01:14;;;;;;;20.77;14.07;;;;;;;23.34;59.45;100598.07;1783597;80;20948;-74
2021/07/29 00:03:42;;;;;;;24.02;12.70;;;;;;;23.31;59.58;100597.09;1783517;80;20899;-72
2021/07/29 00:06:15;;;;;;;19.85;12.93;;;;;;;23.27;59.48;100604.62;1783580;80;21453;-74
2021/07/29 00:08:44;;;;;;;18.00;13.40;;;;;;;23.24;59.82;100599.64;1783704;80;26691;-75
2021/07/29 00:11:10;;;;;;;22.90;13.08;;;;;;;23.22;59.95;100594.14;1784081;80;20833;-73
2021/07/29 00:13:38;;;;;;;21.75;15.70;;;;;;;23.20;60.16;100597.49;1783533;80;21437;-74
2021/07/29 00:16:06;;;;;;;25.60;15.58;;;;;;;23.18;60.08;100589.63;1783464;80;20928;-74
2021/07/29 00:21:19;;;;;;;22.10;14.93;;;;;;;23.18;60.15;100590.97;1783655;80;21144;-72
2021/07/29 00:23:49;;;;;;;20.90;15.98;;;;;;;23.18;59.88;100580.27;1783523;80;20951;-73
2021/07/29 00:26:17;;;;;;;26.02;16.55;;;;;;;23.18;59.74;100571.73;1783529;80;20932;-73
2021/07/29 00:28:43;;;;;;;30.32;16.93;;;;;;;23.20;59.73;100566.22;1783522;80;20853;-72
2021/07/29 00:31:10;;;;;;;28.83;16.75;;;;;;;23.21;59.70;100561.69;1783571;80;20904;-71
2021/07/29 00:33:37;;;;;;;27.65;17.05;;;;;;;23.20;59.80;100557.36;1783482;80;21492;-74
2021/07/29 00:36:06;;;;;;;21.77;14.80;;;;;;;23.18;59.82;100559.69;1783469;80;21034;-75
2021/07/29 00:38:34;;;;;;;25.32;15.35;;;;;;;23.17;59.94;100560.72;1783521;80;20908;-76
2021/07/29 00:41:00;;;;;;;20.00;14.65;;;;;;;23.14;60.06;100559.73;1783711;80;20904;-74
2021/07/29 00:43:29;;;;;;;26.17;15.13;;;;;;;23.12;60.12;100556.88;1783580;80;20934;-73
2021/07/29 00:45:56;;;;;;;22.42;15.58;;;;;;;23.09;60.24;100554.06;1783697;80;21497;-73
2021/07/29 00:48:24;;;;;;;23.60;14.55;;;;;;;23.07;60.28;100557.41;1783483;80;20884;-74
2021/07/29 00:50:51;;;;;;;21.05;14.05;;;;;;;23.05;60.38;100559.94;1783710;80;20896;-74
2021/07/29 00:53:17;;;;;;;28.00;14.35;;;;;;;23.03;60.50;100564.12;1783545;80;20979;-74
2021/07/29 00:55:45;;;;;;;20.27;13.65;;;;;;;23.03;60.61;100564.62;1783489;80;20900;-75
2021/07/29 00:58:11;;;;;;;20.77;12.33;;;;;;;23.01;60.81;100561.29;1783351;80;21526;-75
2021/07/29 01:00:38;;;;;;;17.50;13.15;;;;;;;23.00;60.93;100560.98;1783701;80;21472;-74
2021/07/29 01:03:05;;;;;;;19.87;12.68;;;;;;;22.97;60.83;100556.27;1783461;80;20928;-75
2021/07/29 01:05:32;;;;;;;20.05;14.28;;;;;;;22.97;60.82;100555.45;1783740;80;20900;-74
2021/07/29 01:07:59;;;;;;;19.95;11.53;;;;;;;22.95;60.95;100546.25;1783617;80;20900;-74
2021/07/29 01:10:27;;;;;;;22.13;11.97;;;;;;;22.94;61.14;100543.73;1783664;80;20924;-74
2021/07/29 01:12:54;;;;;;;14.60;11.60;;;;;;;22.91;61.18;100541.42;1783595;80;20891;-74
2021/07/29 01:15:21;;;;;;;16.42;12.50;;;;;;;22.89;61.18;100544.27;1784139;80;20936;-74
2021/07/29 01:17:48;;;;;;;19.73;12.85;;;;;;;22.87;61.30;100546.28;1783799;80;20964;-73
2021/07/29 01:20:21;;;;;;;16.80;11.38;;;;;;;22.85;61.42;100541.61;1777322;80;21322;-74
2021/07/29 01:22:48;;;;;;;18.30;11.65;;;;;;;22.84;61.70;100540.47;1775529;80;21132;-75
2021/07/29 01:25:15;;;;;;;21.48;11.75;;;;;;;22.81;61.69;100542.98;1775809;80;20929;-73
2021/07/29 01:27:42;;;;;;;17.27;11.63;;;;;;;22.81;61.80;100535.45;1775482;80;20924;-74
2021/07/29 01:30:11;;;;;;;18.48;11.53;;;;;;;22.79;61.83;100534.30;1775415;80;21394;-74
2021/07/29 01:32:39;;;;;;;15.28;11.68;;;;;;;22.78;61.84;100529.13;1775372;80;20968;-75
2021/07/29 01:35:11;;;;;;;18.92;12.30;;;;;;;22.78;61.91;100533.13;1775658;80;21153;-73
2021/07/29 01:37:41;;;;;;;18.52;11.80;;;;;;;22.77;61.97;100541.66;1776095;80;20974;-74
2021/07/29 01:40:09;;;;;;;14.25;11.33;;;;;;;22.75;62.03;100546.34;1775894;80;20956;-74
2021/07/29 01:42:37;;;;;;;13.25;11.68;;;;;;;22.72;62.08;100548.87;1775544;80;20920;-73
2021/07/29 01:45:06;;;;;;;16.48;11.35;;;;;;;22.68;62.16;100544.05;1775443;80;20909;-74
2021/07/29 01:47:33;;;;;;;17.45;10.72;;;;;;;22.64;62.16;100535.52;1775633;80;21857;-73
2021/07/29 01:50:00;;;;;;;13.72;10.40;;;;;;;22.61;62.26;100539.89;1775395;80;20972;-73
2021/07/29 01:52:27;;;;;;;15.40;10.10;;;;;;;22.59;62.41;100545.05;1775662;80;21441;-72
2021/07/29 01:54:54;;;;;;;17.05;11.03;;;;;;;22.56;62.40;100541.72;1775256;80;20873;-73
2021/07/29 01:57:23;;;;;;;16.35;9.75;;;;;;;22.57;62.44;100550.59;1775680;80;20912;-73
2021/07/29 01:59:49;;;;;;;15.90;11.28;;;;;;;22.57;62.74;100549.26;1738392;82;21593;-73
2021/07/29 02:02:17;;;;;;;13.90;10.15;;;;;;;22.56;62.76;100549.73;1775186;80;20884;-73
2021/07/29 02:04:44;;;;;;;13.40;10.25;;;;;;;22.56;63.03;100552.41;1775382;80;20881;-73
2021/07/29 02:07:10;;;;;;;19.07;10.18;;;;;;;22.54;63.22;100552.25;1775491;80;20968;-74
2021/07/29 02:09:38;;;;;;;16.70;11.60;;;;;;;22.51;63.20;100554.77;1775319;80;20896;-72
2021/07/29 02:12:06;;;;;;;19.73;14.05;;;;;;;22.49;63.17;100554.11;1775382;80;21170;-72
2021/07/29 02:14:34;;;;;;;15.15;10.95;;;;;;;22.47;63.19;100558.79;1775278;80;20851;-73
2021/07/29 02:17:03;;;;;;;15.65;9.70;;;;;;;22.47;63.26;100554.78;1775349;80;20934;-72
2021/07/29 02:19:32;;;;;;;19.25;10.82;;;;;;;22.47;63.38;100555.29;1778060;80;20923;-71
2021/07/29 02:21:59;;;;;;;17.35;10.25;;;;;;;22.45;63.41;100551.44;1783968;80;20939;-74
2021/07/29 02:24:25;;;;;;;20.50;10.55;;;;;;;22.46;63.57;100554.97;1783545;80;21524;-72
2021/07/29 02:26:52;;;;;;;16.20;10.78;;;;;;;22.48;63.67;100555.63;1783815;80;21387;-73
2021/07/29 02:29:20;;;;;;;17.80;11.10;;;;;;;22.48;63.71;100553.79;1783619;80;21347;-72
2021/07/29 02:31:46;;;;;;;20.12;10.40;;;;;;;22.48;63.75;100555.13;1784052;80;21136;-72
2021/07/29 02:34:16;;;;;;;16.35;10.15;;;;;;;22.48;63.90;100556.46;1784627;80;20880;-74
2021/07/29 02:36:43;;;;;;;19.52;10.18;;;;;;;22.47;63.97;100556.63;1786622;79;21156;-72
2021/07/29 02:39:10;;;;;;;17.52;11.20;;;;;;;22.46;64.13;100557.13;1784512;80;20924;-72
2021/07/29 02:41:37;;;;;;;17.25;10.68;;;;;;;22.45;64.29;100554.63;1785054;80;20968;-71
2021/07/29 02:44:05;;;;;;;15.85;10.53;;;;;;;22.46;64.55;100557.13;1785292;80;20940;-71
2021/07/29 02:46:32;;;;;;;20.57;11.03;;;;;;;22.48;64.79;100560.98;1783983;80;20873;-71
2021/07/29 02:48:59;;;;;;;16.95;10.38;;;;;;;22.49;64.95;100557.29;1784024;80;21098;-74
2021/07/29 02:51:26;;;;;;;14.70;10.08;;;;;;;22.50;65.14;100557.61;1783423;80;20927;-74
2021/07/29 02:53:53;;;;;;;21.27;10.35;;;;;;;22.51;65.21;100552.09;1783486;80;20888;-73
2021/07/29 02:56:20;;;;;;;15.18;10.15;;;;;;;22.52;65.28;100551.11;1783767;80;21422;-73
2021/07/29 02:58:48;;;;;;;16.05;9.40;;;;;;;22.55;65.37;100549.42;1783511;80;20919;-73
2021/07/29 03:01:15;;;;;;;25.32;9.60;;;;;;;22.58;65.44;100554.09;1783827;80;22136;-72
2021/07/29 03:03:43;;;;;;;16.27;9.43;;;;;;;22.60;65.52;100548.07;1783457;80;21326;-72
2021/07/29 03:06:11;;;;;;;12.90;10.00;;;;;;;22.61;65.65;100549.25;1783480;80;20928;-74
2021/07/29 03:08:38;;;;;;;13.70;9.30;;;;;;;22.64;65.75;100558.25;1783710;80;21529;-73
2021/07/29 03:11:05;;;;;;;15.35;9.23;;;;;;;22.67;65.84;100562.41;1783918;80;20856;-73
2021/07/29 03:13:32;;;;;;;21.10;10.38;;;;;;;22.72;65.92;100556.03;1783485;80;21140;-74
2021/07/29 03:16:00;;;;;;;11.95;8.35;;;;;;;22.73;65.93;100560.39;1783447;80;21448;-74
2021/07/29 03:18:28;;;;;;;15.53;9.38;;;;;;;22.77;65.88;100567.06;1783544;80;20983;-75
2021/07/29 03:20:55;;;;;;;15.83;9.60;;;;;;;22.80;65.96;100562.70;1783552;80;20931;-75
2021/07/29 03:23:22;;;;;;;15.78;8.73;;;;;;;22.85;65.98;100567.52;1783676;80;20900;-74
2021/07/29 03:25:50;;;;;;;15.72;9.30;;;;;;;22.86;66.05;100560.67;1783890;80;21792;-74
2021/07/29 03:28:17;;;;;;;20.57;9.10;;;;;;;22.89;66.05;100572.34;1783438;80;20837;-74
2021/07/29 03:30:45;;;;;;;16.17;9.18;;;;;;;22.91;66.11;100570.33;1783615;80;21002;-74
2021/07/29 03:33:11;;;;;;;22.70;9.00;;;;;;;22.95;66.14;100568.98;1783406;80;20924;-73
2021/07/29 03:35:40;;;;;;;20.43;9.68;;;;;;;23.01;66.15;100569.31;1783566;80;21062;-74
2021/07/29 03:38:07;;;;;;;13.68;9.08;;;;;;;23.06;66.06;100578.50;1783585;80;21538;-74
2021/07/29 03:40:34;;;;;;;15.25;9.40;;;;;;;23.09;66.08;100578.14;1783409;80;20916;-74
2021/07/29 03:43:02;;;;;;;20.88;9.78;;;;;;;23.13;66.08;100579.97;1783538;80;21123;-73
2021/07/29 03:45:32;;;;;;;13.15;8.68;;;;;;;23.16;66.05;100580.44;1783465;80;20896;-74
2021/07/29 03:47:59;;;;;;;12.33;9.33;;;;;;;23.19;66.05;100577.94;1783391;80;20959;-75
2021/07/29 03:50:27;;;;;;;14.60;9.18;;;;;;;23.24;66.09;100574.73;1783705;80;21734;-74
2021/07/29 03:52:54;;;;;;;17.10;8.98;;;;;;;23.27;66.00;100581.88;1783743;80;20876;-74
2021/07/29 03:55:21;;;;;;;12.65;9.33;;;;;;;23.32;66.07;100582.70;1783643;80;20896;-74
2021/07/29 03:57:47;;;;;;;13.38;8.38;;;;;;;23.37;66.04;100581.69;1783828;80;21493;-73
2021/07/29 04:00:14;;;;;;;16.77;9.70;;;;;;;23.42;65.97;100581.15;1783491;80;20881;-73
2021/07/29 04:02:43;;;;;;;18.95;9.03;;;;;;;23.46;65.92;100572.58;1783462;80;20904;-74
2021/07/29 04:05:10;;;;;;;15.38;9.80;;;;;;;23.53;65.90;100571.38;1783903;80;20956;-74
2021/07/29 04:07:37;;;;;;;12.78;8.65;;;;;;;23.59;65.84;100572.83;1783926;80;20991;-73
2021/07/29 04:10:06;;;;;;;18.75;9.10;;;;;;;23.67;65.71;100575.11;1783610;80;20890;-74
2021/07/29 04:12:33;;;;;;;19.37;9.48;;;;;;;23.72;65.78;100582.95;1783791;80;20944;-73
2021/07/29 04:15:00;;;;;;;13.10;9.13;;;;;;;23.80;65.79;100582.07;1783494;80;21534;-74
2021/07/29 04:17:27;;;;;;;16.05;10.25;;;;;;;23.88;65.60;100579.82;1783633;80;21437;-74
2021/07/29 04:19:55;;;;;;;18.30;9.60;;;;;;;23.95;65.42;100573.58;1781618;80;20952;-74
2021/07/29 04:22:22;;;;;;;14.85;9.18;;;;;;;24.04;65.21;100578.36;1775251;80;21367;-73
2021/07/29 04:24:49;;;;;;;16.87;12.05;;;;;;;24.13;64.99;100577.78;1775340;80;20979;-74
2021/07/29 04:27:16;;;;;;;18.62;9.28;;;;;;;24.26;64.86;100573.14;1775326;80;21517;-73
2021/07/29 04:29:43;;;;;;;14.73;9.40;;;;;;;24.48;64.38;100578.11;1775223;80;21450;-74
2021/07/29 04:32:10;;;;;;;13.85;9.13;;;;;;;24.74;63.75;100580.34;1775231;80;20936;-74
2021/07/29 04:34:38;;;;;;;21.60;12.88;;;;;;;25.02;63.14;100571.94;1775280;80;21485;-75
2021/07/29 04:37:06;;;;;;;17.02;10.10;;;;;;;25.38;62.37;100574.33;1775287;80;20873;-73
2021/07/29 04:39:33;;;;;;;19.25;9.05;;;;;;;25.77;61.29;100571.22;1775306;80;21052;-72
2021/07/29 04:42:00;;;;;;;13.08;8.88;;;;;;;26.20;60.40;100575.20;1775328;80;20963;-73
2021/07/29 04:44:28;;;;;;;16.93;9.70;;;;;;;26.62;59.22;100572.61;1775481;80;20997;-73
2021/07/29 04:46:55;;;;;;;22.87;11.20;;;;;;;27.01;58.16;100569.28;1775322;80;21500;-73
2021/07/29 04:49:23;;;;;;;21.05;9.65;;;;;;;27.41;57.14;100563.19;1775645;80;20888;-74
2021/07/29 04:51:50;;;;;;;22.85;9.70;;;;;;;27.79;56.14;100561.26;1738391;82;21534;-74
2021/07/29 04:54:16;;;;;;;20.52;9.88;;;;;;;28.15;55.17;100558.19;1775583;80;21003;-73
2021/07/29 04:56:43;;;;;;;25.35;12.23;;;;;;;28.49;54.41;100564.38;1775473;80;20909;-73
2021/07/29 04:59:10;;;;;;;17.07;9.28;;;;;;;28.81;53.71;100559.89;1775616;80;20920;-72
2021/07/29 05:01:39;;;;;;;17.90;9.65;;;;;;;29.13;52.77;100562.18;1775478;80;20908;-74
2021/07/29 05:04:06;;;;;;;19.40;9.85;;;;;;;29.44;51.84;100559.20;1775598;80;21136;-73
2021/07/29 05:06:36;;;;;;;16.50;9.20;;;;;;;29.70;50.82;100552.81;1775405;80;20881;-73
2021/07/29 05:09:04;;;;;;;17.90;9.58;;;;;;;29.93;50.52;100549.48;1775557;80;20869;-73
2021/07/29 05:11:31;;;;;;;12.25;9.08;;;;;;;30.17;49.95;100549.70;1775428;80;20917;-74
2021/07/29 05:13:58;;;;;;;19.00;9.40;;;;;;;30.41;49.53;100546.64;1776251;80;20980;-71
2021/07/29 05:16:26;;;;;;;14.07;9.25;;;;;;;30.67;49.05;100550.11;1775502;80;21544;-71
2021/07/29 05:18:53;;;;;;;16.70;8.90;;;;;;;30.94;48.52;100550.09;1775696;80;20857;-72
2021/07/29 05:21:20;;;;;;;19.70;8.63;;;;;;;31.19;47.83;100547.28;1775414;80;20971;-72
2021/07/29 05:23:48;;;;;;;13.55;8.00;;;;;;;31.43;47.24;100542.48;1776041;80;20995;-73
2021/07/29 05:26:17;;;;;;;25.85;9.63;;;;;;;31.63;46.84;100547.05;1739622;82;20928;-77
2021/07/29 05:28:44;;;;;;;19.48;8.98;;;;;;;31.88;46.52;100544.12;1776449;80;21127;-76
2021/07/29 05:31:11;;;;;;;12.75;8.33;;;;;;;32.17;45.74;100539.70;1775844;80;21350;-78
2021/07/29 05:33:38;;;;;;;14.00;9.05;;;;;;;32.41;45.25;100531.50;1775749;80;20932;-76
2021/07/29 05:36:06;;;;;;;13.08;8.55;;;;;;;32.65;44.77;100535.56;1775587;80;20901;-76
2021/07/29 05:38:34;;;;;;;12.30;8.98;;;;;;;32.87;44.40;100532.47;1775842;80;20856;-75
2021/07/29 05:41:07;;;;;;;11.57;8.00;;;;;;;33.14;43.94;100531.92;1775324;80;21983;-76
2021/07/29 05:43:38;;;;;;;15.00;8.85;;;;;;;33.38;43.50;100523.92;1775281;80;20924;-77
2021/07/29 05:46:09;;;;;;;18.10;10.23;;;;;;;33.62;43.02;100525.17;1775861;80;20932;-78
2021/07/29 05:48:37;;;;;;;18.92;9.28;;;;;;;33.84;42.61;100530.14;1775851;80;20931;-78
2021/07/29 05:51:04;;;;;;;22.58;10.43;;;;;;;34.09;42.17;100528.86;1776067;80;20889;-77
2021/07/29 05:53:31;;;;;;;18.27;10.08;;;;;;;34.34;41.88;100524.33;1775362;80;21125;-77
2021/07/29 05:55:59;;;;;;;9.95;8.75;;;;;;;34.59;41.16;100528.45;1775687;80;20963;-77
2021/07/29 05:58:26;;;;;;;19.12;10.23;;;;;;;34.77;40.74;100527.32;1775781;80;20873;-78
2021/07/29 06:00:53;;;;;;;15.85;9.75;;;;;;;34.97;40.45;100528.90;1753738;80;21391;-78
2021/07/29 06:03:19;;;;;;;14.15;9.48;;;;;;;35.19;40.04;100525.34;1775336;80;20920;-74
2021/07/29 06:05:46;;;;;;;15.98;8.40;;;;;;;35.34;39.68;100526.84;1775244;80;22008;-75
2021/07/29 06:08:13;;;;;;;13.83;8.78;;;;;;;35.48;39.62;100523.13;1775238;80;20901;-76
2021/07/29 06:10:40;;;;;;;20.82;8.28;;;;;;;35.63;39.49;100528.75;1775460;80;20975;-76
2021/07/29 06:13:07;;;;;;;20.08;9.10;;;;;;;35.80;38.98;100520.97;1775419;80;21468;-75
2021/07/29 06:15:34;;;;;;;13.75;8.25;;;;;;;35.98;38.82;100521.08;1776823;80;20915;-75
2021/07/29 06:18:01;;;;;;;11.53;8.23;;;;;;;36.14;38.48;100516.00;1778629;80;21190;-75
2021/07/29 06:20:30;;;;;;;11.12;7.47;;;;;;;36.33;38.17;100515.02;1775405;80;21346;-75
2021/07/29 06:22:57;;;;;;;13.15;7.45;;;;;;;36.54;37.85;100517.83;1775315;80;20941;-76
2021/07/29 06:25:25;;;;;;;21.65;7.60;;;;;;;36.74;37.56;100513.00;1775288;80;21458;-79
2021/07/29 06:27:52;;;;;;;25.23;9.13;;;;;;;36.96;37.38;100512.78;1775735;80;20880;-75
2021/07/29 06:30:20;;;;;;;16.42;7.83;;;;;;;37.15;37.28;100514.46;1775568;80;21120;-72
2021/07/29 06:32:46;;;;;;;12.53;7.03;;;;;;;37.30;36.72;100502.98;1775270;80;21493;-72
2021/07/29 06:35:13;;;;;;;12.43;6.53;;;;;;;37.42;36.67;100506.83;1775324;80;21307;-73
2021/07/29 06:37:40;;;;;;;10.60;7.25;;;;;;;37.54;35.92;100504.62;1775217;80;20916;-72
2021/07/29 06:40:08;;;;;;;11.80;6.62;;;;;;;37.60;36.13;100506.00;1775256;80;21445;-73
2021/07/29 06:42:35;;;;;;;9.90;6.70;;;;;;;37.71;35.93;100503.55;1775243;80;21138;-74
2021/07/29 06:45:02;;;;;;;13.40;6.75;;;;;;;37.84;35.61;100500.77;1775363;80;20947;-72
2021/07/29 06:47:32;;;;;;;12.90;6.47;;;;;;;37.96;35.47;100502.67;1775560;80;20975;-70
2021/07/29 06:49:58;;;;;;;11.63;6.80;;;;;;;38.08;35.44;100496.34;1775402;80;20896;-72
2021/07/29 06:52:26;;;;;;;8.75;6.20;;;;;;;38.20;35.30;100499.31;1775558;80;20908;-71
2021/07/29 06:54:53;;;;;;;14.63;6.12;;;;;;;38.33;34.84;100493.23;1775232;80;21161;-71
2021/07/29 06:57:20;;;;;;;15.25;6.62;;;;;;;38.37;35.08;100484.73;1775502;80;21454;-71
2021/07/29 06:59:47;;;;;;;7.95;5.72;;;;;;;38.45;35.24;100481.41;1775147;80;21050;-71
2021/07/29 07:02:15;;;;;;;10.80;5.78;;;;;;;38.58;35.03;100480.02;1775493;80;20888;-72
2021/07/29 07:04:42;;;;;;;10.60;4.95;;;;;;;38.70;34.75;100477.73;1775376;80;21342;-73
2021/07/29 07:07:14;;;;;;;12.65;6.05;;;;;;;38.83;34.31;100479.58;1775468;80;22266;-74
2021/07/29 07:09:41;;;;;;;10.35;5.33;;;;;;;38.90;34.34;100473.22;1775399;80;20856;-73
2021/07/29 07:12:08;;;;;;;10.55;6.37;;;;;;;38.99;34.17;100480.32;1775500;80;20988;-75
2021/07/29 07:14:36;;;;;;;9.38;5.53;;;;;;;39.10;33.89;100477.77;1775249;80;20861;-75
2021/07/29 07:17:05;;;;;;;10.50;5.53;;;;;;;39.13;33.67;100475.80;1775306;80;20877;-74
2021/07/29 07:19:34;;;;;;;11.63;6.42;;;;;;;39.18;33.79;100484.83;1775168;80;21163;-73
2021/07/29 07:22:01;;;;;;;11.57;6.65;;;;;;;39.29;33.73;100480.64;1781039;80;21533;-73
2021/07/29 07:24:35;;;;;;;13.10;6.25;;;;;;;39.42;33.62;100469.55;1783437;80;20967;-73
2021/07/29 07:27:05;;;;;;;13.90;5.90;;;;;;;39.50;33.63;100473.05;1783945;80;20900;-73
2021/07/29 07:29:34;;;;;;;11.53;5.78;;;;;;;39.53;33.53;100474.67;1783493;80;20912;-73
2021/07/29 07:32:01;;;;;;;10.25;5.47;;;;;;;39.53;33.77;100473.30;1783701;80;21507;-73
2021/07/29 07:34:28;;;;;;;20.50;6.22;;;;;;;39.53;33.94;100472.46;1783399;80;20932;-74
2021/07/29 07:36:55;;;;;;;11.45;5.28;;;;;;;39.56;33.87;100468.59;1783379;80;20868;-72
2021/07/29 07:39:23;;;;;;;10.60;5.50;;;;;;;39.64;33.53;100475.37;1783295;80;20928;-74
2021/07/29 07:41:51;;;;;;;7.85;5.50;;;;;;;39.70;33.53;100471.47;1783763;80;20884;-72
2021/07/29 07:44:19;;;;;;;16.30;5.58;;;;;;;39.74;33.27;100466.22;1783752;80;21445;-73
2021/07/29 07:46:46;;;;;;;13.50;5.67;;;;;;;39.77;33.62;100458.20;1783436;80;21368;-73
2021/07/29 07:49:13;;;;;;;13.48;6.10;;;;;;;39.81;33.76;100462.56;1783759;80;20853;-74
2021/07/29 07:51:42;;;;;;;8.98;6.20;;;;;;;39.86;33.55;100469.39;1783424;80;20885;-73
2021/07/29 07:54:12;;;;;;;8.88;5.72;;;;;;;39.86;33.59;100466.66;1783535;80;20896;-72
2021/07/29 07:56:43;;;;;;;13.13;6.10;;;;;;;40.01;33.59;100462.10;1783390;80;21998;-73
2021/07/29 07:59:10;;;;;;;10.87;5.60;;;;;;;40.11;33.14;100464.70;1783544;80;20901;-72
2021/07/29 08:01:40;;;;;;;12.00;5.70;;;;;;;40.14;32.83;100470.45;1783519;80;20952;-74
2021/07/29 08:04:07;;;;;;;8.68;5.83;;;;;;;40.18;32.88;100465.19;1783365;80;20975;-75
2021/07/29 08:06:34;;;;;;;10.80;5.75;;;;;;;40.28;32.97;100457.39;1783477;80;20904;-72
2021/07/29 08:09:05;;;;;;;10.98;5.15;;;;;;;40.31;32.84;100452.66;1783491;80;22000;-73
2021/07/29 08:11:34;;;;;;;11.18;5.12;;;;;;;40.39;32.99;100455.57;1783778;80;20876;-72
2021/07/29 08:14:00;;;;;;;14.15;5.45;;;;;;;40.54;32.82;100458.67;1783860;80;20932;-72
2021/07/29 08:16:27;;;;;;;11.65;4.95;;;;;;;40.63;32.78;100451.14;1783574;80;20853;-73
2021/07/29 08:18:56;;;;;;;10.08;6.30;;;;;;;40.74;32.78;100450.70;1783898;80;20924;-74
2021/07/29 08:21:23;;;;;;;17.75;5.92;;;;;;;40.82;32.51;100450.58;1742428;82;21590;-73
2021/07/29 08:23:50;;;;;;;9.30;5.45;;;;;;;40.94;32.52;100448.19;1752430;82;20896;-72
2021/07/29 08:26:17;;;;;;;13.80;5.47;;;;;;;41.07;32.21;100453.48;1733477;82;21007;-72
2021/07/29 08:28:44;;;;;;;14.50;5.97;;;;;;;41.16;31.95;100455.83;1752357;82;21409;-71
2021/07/29 08:31:13;;;;;;;13.08;5.10;;;;;;;41.20;31.40;100452.74;1752554;82;20889;-70
2021/07/29 08:36:33;;;;;;;15.15;6.37;;;;;;;41.29;31.54;100445.98;1798535;79;22627;-71
2021/07/29 08:39:00;;;;;;;13.38;6.47;;;;;;;41.29;31.53;100454.24;1758390;81;20892;-71
2021/07/29 08:41:27;;;;;;;11.50;6.45;;;;;;;41.37;31.14;100457.66;1758253;81;21507;-70
2021/07/29 08:43:53;;;;;;;12.68;6.47;;;;;;;41.36;31.30;100445.02;1758293;80;21405;-70
2021/07/29 08:46:20;;;;;;;9.15;5.15;;;;;;;41.41;31.48;100448.24;1758384;81;20873;-70
2021/07/29 08:48:49;;;;;;;12.78;5.83;;;;;;;41.46;31.54;100445.38;1758300;81;21429;-73
2021/07/29 08:51:25;;;;;;;11.30;6.20;;;;;;;41.52;31.26;100449.69;1759054;81;20940;-71
2021/07/29 08:53:53;;;;;;;11.97;5.65;;;;;;;41.53;30.89;100448.55;1758289;80;21150;-69
2021/07/29 08:56:24;;;;;;;14.47;5.35;;;;;;;41.51;31.14;100442.56;1758562;81;20841;-72
2021/07/29 08:58:51;;;;;;;14.70;5.50;;;;;;;41.58;31.51;100441.62;1758412;80;20896;-73
2021/07/29 09:01:19;;;;;;;9.70;5.28;;;;;;;41.69;31.08;100445.53;1758279;81;20951;-73
2021/07/29 09:03:47;;;;;;;12.82;5.33;;;;;;;41.78;30.84;100447.86;1758419;81;20916;-72
2021/07/29 09:06:15;;;;;;;9.60;4.50;;;;;;;41.88;30.51;100435.80;1758401;81;21676;-72
2021/07/29 09:08:51;;;;;;;8.58;5.22;;;;;;;41.95;30.68;100441.14;1758254;81;20892;-72
2021/07/29 09:11:36;;;;;;;17.25;6.08;;;;;;;42.03;30.51;100444.59;1758618;81;20931;-72
2021/07/29 09:14:19;;;;;;;10.28;5.20;;;;;;;42.01;30.29;100435.81;1758202;80;20928;-72
2021/07/29 09:17:03;;;;;;;10.10;5.20;;;;;;;41.89;30.36;100435.51;1724583;83;20986;-73
2021/07/29 09:19:47;;;;;;;9.83;5.08;;;;;;;41.81;30.53;100437.59;1724797;81;21135;-73
2021/07/29 09:22:17;;;;;;;13.13;4.87;;;;;;;41.79;30.58;100432.95;1724638;81;20892;-72
2021/07/29 09:25:11;;;;;;;14.25;4.28;;;;;;;41.76;30.51;100434.38;1724806;83;20852;-74
2021/07/29 09:27:42;;;;;;;9.43;4.70;;;;;;;41.78;30.45;100426.63;1725010;83;20947;-75
2021/07/29 09:30:28;;;;;;;9.58;4.90;;;;;;;41.78;30.27;100425.25;1725029;83;20923;-76
2021/07/29 09:33:09;;;;;;;6.90;5.35;;;;;;;41.76;30.53;100423.36;1724921;81;20947;-77
2021/07/29 09:35:45;;;;;;;13.25;5.12;;;;;;;41.85;30.25;100426.22;1717538;81;21548;-77
2021/07/29 09:38:31;;;;;;;9.13;4.40;;;;;;;41.94;29.95;100421.61;1709642;84;20892;-74
2021/07/29 09:41:03;;;;;;;13.13;5.33;;;;;;;41.99;29.80;100413.83;1709131;83;20932;-75
2021/07/29 09:43:34;;;;;;;9.53;4.25;;;;;;;42.04;30.26;100416.47;1709428;83;20892;-74
2021/07/29 09:46:06;;;;;;;9.88;4.90;;;;;;;42.09;30.43;100419.14;1709424;82;21156;-74
2021/07/29 09:48:33;;;;;;;13.00;5.53;;;;;;;42.16;30.37;100410.45;1679594;84;20928;-77
2021/07/29 09:51:01;;;;;;;9.85;4.78;;;;;;;42.18;30.14;100404.03;1744673;81;20897;-74
2021/07/29 09:53:34;;;;;;;11.25;5.55;;;;;;;42.29;29.70;100400.48;1744773;82;20925;-74
2021/07/29 09:56:07;;;;;;;11.40;5.00;;;;;;;42.32;29.38;100396.56;1745091;82;20920;-73
2021/07/29 09:58:37;;;;;;;13.32;4.85;;;;;;;42.41;29.03;100401.61;1745141;80;21133;-74
2021/07/29 10:01:04;;;;;;;9.08;4.58;;;;;;;42.38;29.29;100393.10;1759388;80;20917;-72
2021/07/29 10:03:32;;;;;;;8.33;4.60;;;;;;;42.38;29.23;100391.19;1744785;80;21359;-77
2021/07/29 10:06:06;;;;;;;9.13;4.58;;;;;;;42.43;29.82;100391.66;1744749;81;20897;-74
2021/07/29 10:08:42;;;;;;;13.93;5.67;;;;;;;42.43;29.93;100390.28;1744657;81;20881;-72
2021/07/29 10:11:13;;;;;;;9.78;4.87;;;;;;;42.37;29.26;100393.67;1744802;81;21121;-72
2021/07/29 10:13:42;;;;;;;6.20;4.62;;;;;;;42.17;29.43;100390.82;1744768;81;20865;-72
2021/07/29 10:16:15;;;;;;;6.50;4.53;;;;;;;42.05;29.60;100383.67;1744735;82;21434;-73
2021/07/29 10:18:57;;;;;;;13.30;4.65;;;;;;;42.03;29.99;100372.95;1744546;82;20881;-74
2021/07/29 10:21:29;;;;;;;8.20;4.97;;;;;;;42.00;30.24;100372.73;1745203;81;20908;-73
2021/07/29 10:23:59;;;;;;;12.53;5.12;;;;;;;42.10;30.02;100366.20;1744541;80;21170;-73
2021/07/29 10:26:29;;;;;;;11.38;4.62;;;;;;;42.13;30.07;100365.00;1744466;81;20952;-75
2021/07/29 10:29:27;;;;;;;11.22;4.47;;;;;;;42.17;29.66;100359.13;1744721;81;21015;-75
2021/07/29 10:31:56;;;;;;;9.65;5.08;;;;;;;42.24;29.36;100353.19;1744775;82;21421;-75
2021/07/29 10:34:28;;;;;;;14.25;4.53;;;;;;;42.19;29.24;100351.36;1744588;82;20870;-76
2021/07/29 10:36:57;;;;;;;15.72;6.05;;;;;;;41.95;29.30;100341.14;1756074;80;21161;-74
2021/07/29 10:39:24;;;;;;;16.93;4.75;;;;;;;41.85;29.28;100336.69;1758581;81;22348;-73
2021/07/29 10:42:00;;;;;;;6.20;4.70;;;;;;;41.77;29.56;100338.22;1758235;81;20869;-74
2021/07/29 10:44:38;;;;;;;15.43;5.55;;;;;;;41.74;30.03;100331.16;1757997;80;20971;-74
2021/07/29 10:47:07;;;;;;;13.53;5.65;;;;;;;41.85;29.79;100323.48;1758494;81;20960;-73
2021/07/29 10:50:00;;;;;;;12.18;5.53;;;;;;;41.92;29.96;100327.44;1757729;80;21142;-75
2021/07/29 10:52:29;;;;;;;13.43;5.33;;;;;;;41.75;29.46;100323.12;1758193;81;21026;-75
2021/07/29 10:54:56;;;;;;;12.85;5.70;;;;;;;41.36;29.66;100325.28;1758131;81;21007;-74
2021/07/29 10:57:24;;;;;;;14.87;5.80;;;;;;;40.88;30.35;100322.85;1757959;81;20888;-74
2021/07/29 10:59:51;;;;;;;13.48;5.70;;;;;;;40.45;31.01;100315.34;1757997;81;20872;-74
2021/07/29 11:02:34;;;;;;;12.13;6.10;;;;;;;39.98;31.77;100314.63;1758262;81;21116;-76
2021/07/29 11:05:05;;;;;;;18.15;6.35;;;;;;;39.52;32.66;100300.66;1699321;83;20872;-76
2021/07/29 11:07:30;;;;;;;10.40;6.10;;;;;;;39.01;33.49;100293.80;1721688;82;20852;-73
2021/07/29 11:10:08;;;;;;;15.43;6.20;;;;;;;38.61;33.86;100284.83;1695911;83;21508;-74
2021/07/29 11:12:35;;;;;;;12.45;5.72;;;;;;;38.25;33.72;100289.75;1722322;83;20885;-73
2021/07/29 11:15:04;;;;;;;16.60;6.17;;;;;;;37.83;33.50;100271.36;1721932;82;20873;-73
2021/07/29 11:17:31;;;;;;;17.07;7.08;;;;;;;37.51;34.65;100265.75;1722167;83;21365;-73
2021/07/29 11:19:58;;;;;;;15.63;5.72;;;;;;;37.24;35.72;100262.56;1722421;83;20978;-75
2021/07/29 11:22:25;;;;;;;11.83;5.70;;;;;;;36.99;35.63;100264.24;1721860;83;20908;-74
2021/07/29 11:24:53;;;;;;;10.63;5.50;;;;;;;36.93;35.60;100261.23;1722023;83;21337;-75
2021/07/29 11:27:31;;;;;;;10.50;5.97;;;;;;;36.77;36.20;100266.47;1721856;83;21130;-74
2021/07/29 11:30:01;;;;;;;12.95;6.37;;;;;;;36.62;36.69;100273.61;1721965;83;20920;-75